sensor_id;sensor_type;location;lat;lon;timestamp;temperature;humidity
40622;DHT22;26324;52.040;11.528;2022-09-29T00:01:22;7.30;91.30
40622;DHT22;26324;52.040;11.528;2022-09-29T00:03:48;7.40;91.20
40622;DHT22;26324;52.040;11.528;2022-09-29T00:06:16;7.30;91.20
40622;DHT22;26324;52.040;11.528;2022-09-29T00:08:43;7.30;91.30
40622;DHT22;26324;52.040;11.528;2022-09-29T00:11:11;7.40;91.30
40622;DHT22;26324;52.040;11.528;2022-09-29T00:13:37;7.40;91.20
40622;DHT22;26324;52.040;11.528;2022-09-29T00:16:03;7.30;91.20
40622;DHT22;26324;52.040;11.528;2022-09-29T00:18:31;7.40;91.20
40622;DHT22;26324;52.040;11.528;2022-09-29T00:21:03;7.50;91.30
40622;DHT22;26324;52.040;11.528;2022-09-29T00:23:30;7.50;91.20
40622;DHT22;26324;52.040;11.528;2022-09-29T00:26:08;7.50;91.20
40622;DHT22;26324;52.040;11.528;2022-09-29T00:28:36;7.40;91.30
40622;DHT22;26324;52.040;11.528;2022-09-29T00:31:03;7.50;91.30
40622;DHT22;26324;52.040;11.528;2022-09-29T00:33:30;7.50;91.30
40622;DHT22;26324;52.040;11.528;2022-09-29T00:36:02;7.60;91.20
40622;DHT22;26324;52.040;11.528;2022-09-29T00:38:30;7.50;91.10
40622;DHT22;26324;52.040;11.528;2022-09-29T00:40:56;7.60;91.20
40622;DHT22;26324;52.040;11.528;2022-09-29T00:46:09;7.60;91.20
40622;DHT22;26324;52.040;11.528;2022-09-29T00:48:35;7.60;91.10
40622;DHT22;26324;52.040;11.528;2022-09-29T00:51:01;7.60;91.10
40622;DHT22;26324;52.040;11.528;2022-09-29T00:53:27;7.60;91.00
40622;DHT22;26324;52.040;11.528;2022-09-29T00:55:57;7.60;91.00
40622;DHT22;26324;52.040;11.528;2022-09-29T00:58:34;7.60;91.10
40622;DHT22;26324;52.040;11.528;2022-09-29T01:01:00;7.70;91.00
40622;DHT22;26324;52.040;11.528;2022-09-29T01:03:33;7.70;90.80
40622;DHT22;26324;52.040;11.528;2022-09-29T01:06:07;7.70;90.90
40622;DHT22;26324;52.040;11.528;2022-09-29T01:09:00;7.70;90.60
40622;DHT22;26324;52.040;11.528;2022-09-29T01:11:28;7.70;90.70
40622;DHT22;26324;52.040;11.528;2022-09-29T01:13:55;7.70;90.60
40622;DHT22;26324;52.040;11.528;2022-09-29T01:16:25;7.70;90.60
40622;DHT22;26324;52.040;11.528;2022-09-29T01:18:51;7.70;90.60
40622;DHT22;26324;52.040;11.528;2022-09-29T01:35:29;7.70;90.60
40622;DHT22;26324;52.040;11.528;2022-09-29T01:38:13;7.80;90.60
40622;DHT22;26324;52.040;11.528;2022-09-29T01:43:41;7.70;90.50
40622;DHT22;26324;52.040;11.528;2022-09-29T01:46:11;7.80;90.60
40622;DHT22;26324;52.040;11.528;2022-09-29T01:48:43;7.90;90.50
40622;DHT22;26324;52.040;11.528;2022-09-29T01:51:15;8.00;90.40
40622;DHT22;26324;52.040;11.528;2022-09-29T01:53:46;8.00;90.20
40622;DHT22;26324;52.040;11.528;2022-09-29T01:56:22;7.90;90.00
40622;DHT22;26324;52.040;11.528;2022-09-29T01:59:14;7.90;90.10
40622;DHT22;26324;52.040;11.528;2022-09-29T02:01:43;7.90;90.10
40622;DHT22;26324;52.040;11.528;2022-09-29T02:04:22;7.80;90.10
40622;DHT22;26324;52.040;11.528;2022-09-29T02:07:04;7.90;90.10
40622;DHT22;26324;52.040;11.528;2022-09-29T02:09:36;7.80;90.00
40622;DHT22;26324;52.040;11.528;2022-09-29T02:12:03;7.80;90.10
40622;DHT22;26324;52.040;11.528;2022-09-29T02:14:34;7.90;90.10
40622;DHT22;26324;52.040;11.528;2022-09-29T02:17:20;7.80;90.10
40622;DHT22;26324;52.040;11.528;2022-09-29T02:19:49;7.70;90.20
40622;DHT22;26324;52.040;11.528;2022-09-29T02:22:16;7.80;90.30
40622;DHT22;26324;52.040;11.528;2022-09-29T02:24:42;7.80;90.30
40622;DHT22;26324;52.040;11.528;2022-09-29T02:27:08;7.90;90.20
40622;DHT22;26324;52.040;11.528;2022-09-29T02:29:34;7.90;90.10
40622;DHT22;26324;52.040;11.528;2022-09-29T02:32:02;7.90;90.30
40622;DHT22;26324;52.040;11.528;2022-09-29T02:34:30;7.80;90.20
40622;DHT22;26324;52.040;11.528;2022-09-29T02:36:57;7.80;90.20
40622;DHT22;26324;52.040;11.528;2022-09-29T02:39:31;7.70;90.30
40622;DHT22;26324;52.040;11.528;2022-09-29T02:42:29;7.70;90.30
40622;DHT22;26324;52.040;11.528;2022-09-29T02:53:46;7.70;90.40
40622;DHT22;26324;52.040;11.528;2022-09-29T02:59:02;7.80;90.40
40622;DHT22;26324;52.040;11.528;2022-09-29T03:01:32;7.70;90.20
40622;DHT22;26324;52.040;11.528;2022-09-29T03:03:59;7.80;90.20
40622;DHT22;26324;52.040;11.528;2022-09-29T03:06:25;7.80;90.10
40622;DHT22;26324;52.040;11.528;2022-09-29T03:08:51;7.70;90.20
40622;DHT22;26324;52.040;11.528;2022-09-29T03:11:17;7.70;90.20
40622;DHT22;26324;52.040;11.528;2022-09-29T03:13:44;7.70;90.30
40622;DHT22;26324;52.040;11.528;2022-09-29T03:16:10;7.80;90.10
40622;DHT22;26324;52.040;11.528;2022-09-29T03:18:36;7.80;90.00
40622;DHT22;26324;52.040;11.528;2022-09-29T03:21:01;7.80;90.00
40622;DHT22;26324;52.040;11.528;2022-09-29T03:23:27;7.70;90.20
40622;DHT22;26324;52.040;11.528;2022-09-29T03:25:52;7.80;90.10
40622;DHT22;26324;52.040;11.528;2022-09-29T03:28:18;7.80;90.00
40622;DHT22;26324;52.040;11.528;2022-09-29T03:30:44;7.80;90.00
40622;DHT22;26324;52.040;11.528;2022-09-29T03:33:10;7.90;89.90
40622;DHT22;26324;52.040;11.528;2022-09-29T03:35:36;7.90;89.70
40622;DHT22;26324;52.040;11.528;2022-09-29T03:38:02;7.80;89.80
40622;DHT22;26324;52.040;11.528;2022-09-29T03:40:27;7.80;89.90
40622;DHT22;26324;52.040;11.528;2022-09-29T03:42:53;7.70;89.80
40622;DHT22;26324;52.040;11.528;2022-09-29T03:45:19;7.60;89.90
40622;DHT22;26324;52.040;11.528;2022-09-29T03:47:44;7.60;90.10
40622;DHT22;26324;52.040;11.528;2022-09-29T03:50:10;7.60;90.20
40622;DHT22;26324;52.040;11.528;2022-09-29T03:52:36;7.60;90.30
40622;DHT22;26324;52.040;11.528;2022-09-29T03:55:02;7.50;90.30
40622;DHT22;26324;52.040;11.528;2022-09-29T03:57:27;7.50;90.20
40622;DHT22;26324;52.040;11.528;2022-09-29T03:59:53;7.50;90.30
40622;DHT22;26324;52.040;11.528;2022-09-29T04:02:19;7.60;90.40
40622;DHT22;26324;52.040;11.528;2022-09-29T04:04:45;7.60;90.20
40622;DHT22;26324;52.040;11.528;2022-09-29T04:07:11;7.50;90.30
40622;DHT22;26324;52.040;11.528;2022-09-29T04:09:36;7.50;90.40
40622;DHT22;26324;52.040;11.528;2022-09-29T04:12:03;7.50;90.40
40622;DHT22;26324;52.040;11.528;2022-09-29T04:14:29;7.50;90.40
40622;DHT22;26324;52.040;11.528;2022-09-29T04:16:54;7.50;90.50
40622;DHT22;26324;52.040;11.528;2022-09-29T04:19:20;7.40;90.50
40622;DHT22;26324;52.040;11.528;2022-09-29T04:21:45;7.30;90.90
40622;DHT22;26324;52.040;11.528;2022-09-29T04:24:11;7.20;90.80
40622;DHT22;26324;52.040;11.528;2022-09-29T04:26:37;7.30;90.80
40622;DHT22;26324;52.040;11.528;2022-09-29T04:29:05;7.40;90.60
40622;DHT22;26324;52.040;11.528;2022-09-29T04:31:30;7.20;90.40
40622;DHT22;26324;52.040;11.528;2022-09-29T04:33:56;7.10;90.40
40622;DHT22;26324;52.040;11.528;2022-09-29T04:36:21;7.00;90.50
40622;DHT22;26324;52.040;11.528;2022-09-29T04:38:47;6.90;90.60
40622;DHT22;26324;52.040;11.528;2022-09-29T04:41:14;6.70;90.70
40622;DHT22;26324;52.040;11.528;2022-09-29T04:43:40;6.70;90.70
40622;DHT22;26324;52.040;11.528;2022-09-29T04:46:06;6.50;90.80
40622;DHT22;26324;52.040;11.528;2022-09-29T04:48:32;6.50;91.00
40622;DHT22;26324;52.040;11.528;2022-09-29T04:50:58;6.50;91.10
40622;DHT22;26324;52.040;11.528;2022-09-29T04:53:24;6.60;91.10
40622;DHT22;26324;52.040;11.528;2022-09-29T04:55:49;6.60;90.80
40622;DHT22;26324;52.040;11.528;2022-09-29T04:58:18;6.50;90.70
40622;DHT22;26324;52.040;11.528;2022-09-29T05:00:44;6.40;90.60
40622;DHT22;26324;52.040;11.528;2022-09-29T05:03:10;6.30;90.80
40622;DHT22;26324;52.040;11.528;2022-09-29T05:05:35;6.40;90.50
40622;DHT22;26324;52.040;11.528;2022-09-29T05:08:04;6.40;90.30
40622;DHT22;26324;52.040;11.528;2022-09-29T05:10:32;6.30;90.20
40622;DHT22;26324;52.040;11.528;2022-09-29T05:12:57;6.30;90.30
40622;DHT22;26324;52.040;11.528;2022-09-29T05:15:23;6.20;90.40
40622;DHT22;26324;52.040;11.528;2022-09-29T05:17:49;6.10;90.60
40622;DHT22;26324;52.040;11.528;2022-09-29T05:20:14;6.10;90.60
40622;DHT22;26324;52.040;11.528;2022-09-29T05:22:41;6.10;90.70
40622;DHT22;26324;52.040;11.528;2022-09-29T05:25:08;6.10;90.70
40622;DHT22;26324;52.040;11.528;2022-09-29T05:27:34;6.10;90.90
40622;DHT22;26324;52.040;11.528;2022-09-29T05:30:00;6.10;91.10
40622;DHT22;26324;52.040;11.528;2022-09-29T05:32:26;6.10;91.20
40622;DHT22;26324;52.040;11.528;2022-09-29T05:34:51;6.10;91.30
40622;DHT22;26324;52.040;11.528;2022-09-29T05:37:19;6.10;91.40
40622;DHT22;26324;52.040;11.528;2022-09-29T05:39:44;6.00;91.50
40622;DHT22;26324;52.040;11.528;2022-09-29T05:42:13;6.00;91.30
40622;DHT22;26324;52.040;11.528;2022-09-29T05:44:38;6.00;91.40
40622;DHT22;26324;52.040;11.528;2022-09-29T05:47:07;5.90;91.30
40622;DHT22;26324;52.040;11.528;2022-09-29T05:49:32;5.90;91.30
40622;DHT22;26324;52.040;11.528;2022-09-29T05:51:59;5.90;91.50
40622;DHT22;26324;52.040;11.528;2022-09-29T05:54:25;5.90;91.60
40622;DHT22;26324;52.040;11.528;2022-09-29T05:56:51;5.90;91.60
40622;DHT22;26324;52.040;11.528;2022-09-29T05:59:17;5.90;91.60
40622;DHT22;26324;52.040;11.528;2022-09-29T06:01:43;5.90;91.60
40622;DHT22;26324;52.040;11.528;2022-09-29T06:04:08;6.00;91.80
40622;DHT22;26324;52.040;11.528;2022-09-29T06:06:34;6.00;91.80
40622;DHT22;26324;52.040;11.528;2022-09-29T06:09:01;6.10;91.90
40622;DHT22;26324;52.040;11.528;2022-09-29T06:11:29;6.10;92.00
40622;DHT22;26324;52.040;11.528;2022-09-29T06:13:58;6.20;92.20
40622;DHT22;26324;52.040;11.528;2022-09-29T06:16:26;6.40;92.30
40622;DHT22;26324;52.040;11.528;2022-09-29T06:18:53;6.50;92.00
40622;DHT22;26324;52.040;11.528;2022-09-29T06:21:24;6.80;92.00
40622;DHT22;26324;52.040;11.528;2022-09-29T06:23:51;6.90;91.90
40622;DHT22;26324;52.040;11.528;2022-09-29T06:26:18;7.00;91.90
40622;DHT22;26324;52.040;11.528;2022-09-29T06:28:44;7.20;91.50
40622;DHT22;26324;52.040;11.528;2022-09-29T06:31:15;7.30;91.50
40622;DHT22;26324;52.040;11.528;2022-09-29T06:33:41;7.20;91.10
40622;DHT22;26324;52.040;11.528;2022-09-29T06:36:18;7.20;90.90
40622;DHT22;26324;52.040;11.528;2022-09-29T06:39:04;7.30;90.90
40622;DHT22;26324;52.040;11.528;2022-09-29T06:41:30;7.30;90.50
40622;DHT22;26324;52.040;11.528;2022-09-29T06:43:56;7.50;90.20
40622;DHT22;26324;52.040;11.528;2022-09-29T06:46:22;7.60;89.70
40622;DHT22;26324;52.040;11.528;2022-09-29T06:48:48;7.70;89.00
40622;DHT22;26324;52.040;11.528;2022-09-29T06:51:14;7.70;88.50
40622;DHT22;26324;52.040;11.528;2022-09-29T06:53:40;8.00;88.10
40622;DHT22;26324;52.040;11.528;2022-09-29T06:56:06;8.10;87.40
40622;DHT22;26324;52.040;11.528;2022-09-29T06:58:33;8.20;87.50
40622;DHT22;26324;52.040;11.528;2022-09-29T07:01:00;8.40;87.60
40622;DHT22;26324;52.040;11.528;2022-09-29T07:03:27;8.40;86.50
40622;DHT22;26324;52.040;11.528;2022-09-29T07:05:53;8.60;86.80
40622;DHT22;26324;52.040;11.528;2022-09-29T07:08:19;8.60;86.40
40622;DHT22;26324;52.040;11.528;2022-09-29T07:10:45;8.80;86.30
40622;DHT22;26324;52.040;11.528;2022-09-29T07:13:11;9.00;85.90
40622;DHT22;26324;52.040;11.528;2022-09-29T07:15:36;9.20;84.40
40622;DHT22;26324;52.040;11.528;2022-09-29T07:18:03;9.30;83.20
40622;DHT22;26324;52.040;11.528;2022-09-29T07:20:29;9.30;81.20
40622;DHT22;26324;52.040;11.528;2022-09-29T07:22:58;9.30;81.60
40622;DHT22;26324;52.040;11.528;2022-09-29T07:25:24;9.30;81.40
40622;DHT22;26324;52.040;11.528;2022-09-29T07:27:50;9.30;81.20
40622;DHT22;26324;52.040;11.528;2022-09-29T07:30:17;9.50;81.30
40622;DHT22;26324;52.040;11.528;2022-09-29T07:32:43;9.50;81.90
40622;DHT22;26324;52.040;11.528;2022-09-29T07:35:08;9.70;81.80
40622;DHT22;26324;52.040;11.528;2022-09-29T07:37:34;9.80;80.30
40622;DHT22;26324;52.040;11.528;2022-09-29T07:39:59;9.70;79.80
40622;DHT22;26324;52.040;11.528;2022-09-29T07:42:27;9.80;79.60
40622;DHT22;26324;52.040;11.528;2022-09-29T07:44:54;9.90;79.90
40622;DHT22;26324;52.040;11.528;2022-09-29T07:47:19;10.10;79.60
40622;DHT22;26324;52.040;11.528;2022-09-29T07:49:45;10.20;78.50
40622;DHT22;26324;52.040;11.528;2022-09-29T07:52:12;10.30;77.10
40622;DHT22;26324;52.040;11.528;2022-09-29T07:54:38;10.40;76.70
40622;DHT22;26324;52.040;11.528;2022-09-29T07:57:03;10.50;76.30
40622;DHT22;26324;52.040;11.528;2022-09-29T07:59:29;10.60;76.20
40622;DHT22;26324;52.040;11.528;2022-09-29T08:01:56;10.60;76.50
40622;DHT22;26324;52.040;11.528;2022-09-29T08:04:21;10.60;75.80
40622;DHT22;26324;52.040;11.528;2022-09-29T08:06:47;10.80;76.30
40622;DHT22;26324;52.040;11.528;2022-09-29T08:09:13;10.90;76.40
40622;DHT22;26324;52.040;11.528;2022-09-29T08:11:40;11.00;76.50
40622;DHT22;26324;52.040;11.528;2022-09-29T08:14:07;11.20;76.20
40622;DHT22;26324;52.040;11.528;2022-09-29T08:16:34;11.30;74.80
40622;DHT22;26324;52.040;11.528;2022-09-29T08:19:00;11.50;72.60
40622;DHT22;26324;52.040;11.528;2022-09-29T08:21:26;11.60;72.80
40622;DHT22;26324;52.040;11.528;2022-09-29T08:23:52;11.60;71.90
40622;DHT22;26324;52.040;11.528;2022-09-29T08:26:19;11.60;72.40
40622;DHT22;26324;52.040;11.528;2022-09-29T08:28:45;11.60;73.50
40622;DHT22;26324;52.040;11.528;2022-09-29T08:31:17;11.80;73.10
40622;DHT22;26324;52.040;11.528;2022-09-29T08:33:44;11.90;72.00
40622;DHT22;26324;52.040;11.528;2022-09-29T08:36:10;12.00;71.80
40622;DHT22;26324;52.040;11.528;2022-09-29T08:38:40;12.00;70.20
40622;DHT22;26324;52.040;11.528;2022-09-29T08:43:57;12.10;71.60
40622;DHT22;26324;52.040;11.528;2022-09-29T08:46:30;12.30;70.90
40622;DHT22;26324;52.040;11.528;2022-09-29T08:48:58;12.30;71.80
40622;DHT22;26324;52.040;11.528;2022-09-29T08:51:33;12.40;71.80
40622;DHT22;26324;52.040;11.528;2022-09-29T08:54:06;12.50;69.60
40622;DHT22;26324;52.040;11.528;2022-09-29T08:56:34;12.50;70.20
40622;DHT22;26324;52.040;11.528;2022-09-29T08:58:59;12.60;69.90
40622;DHT22;26324;52.040;11.528;2022-09-29T09:01:33;12.60;68.40
40622;DHT22;26324;52.040;11.528;2022-09-29T09:07:26;12.80;67.90
40622;DHT22;26324;52.040;11.528;2022-09-29T09:09:59;13.00;68.40
40622;DHT22;26324;52.040;11.528;2022-09-29T09:12:43;13.10;68.80
40622;DHT22;26324;52.040;11.528;2022-09-29T09:15:15;13.40;68.60
40622;DHT22;26324;52.040;11.528;2022-09-29T09:20:44;13.60;66.40
40622;DHT22;26324;52.040;11.528;2022-09-29T09:25:41;13.60;67.30
40622;DHT22;26324;52.040;11.528;2022-09-29T09:29:00;13.70;65.10
40622;DHT22;26324;52.040;11.528;2022-09-29T09:37:18;14.10;64.80
40622;DHT22;26324;52.040;11.528;2022-09-29T09:42:20;14.00;67.10
40622;DHT22;26324;52.040;11.528;2022-09-29T09:47:30;14.40;65.30
40622;DHT22;26324;52.040;11.528;2022-09-29T09:50:02;14.60;63.50
40622;DHT22;26324;52.040;11.528;2022-09-29T09:52:43;14.60;63.20
40622;DHT22;26324;52.040;11.528;2022-09-29T09:55:18;14.70;61.80
40622;DHT22;26324;52.040;11.528;2022-09-29T10:00:45;15.00;60.70
40622;DHT22;26324;52.040;11.528;2022-09-29T10:03:12;15.10;59.90
40622;DHT22;26324;52.040;11.528;2022-09-29T10:05:41;15.10;61.00
40622;DHT22;26324;52.040;11.528;2022-09-29T10:08:18;15.30;59.40
40622;DHT22;26324;52.040;11.528;2022-09-29T10:10:45;15.50;59.40
40622;DHT22;26324;52.040;11.528;2022-09-29T10:13:13;15.50;58.40
40622;DHT22;26324;52.040;11.528;2022-09-29T10:20:45;15.50;58.10
40622;DHT22;26324;52.040;11.528;2022-09-29T10:23:34;15.50;59.20
40622;DHT22;26324;52.040;11.528;2022-09-29T10:26:15;15.80;57.00
40622;DHT22;26324;52.040;11.528;2022-09-29T10:28:49;15.80;56.40
40622;DHT22;26324;52.040;11.528;2022-09-29T10:31:28;15.60;57.60
40622;DHT22;26324;52.040;11.528;2022-09-29T10:34:02;15.70;56.60
40622;DHT22;26324;52.040;11.528;2022-09-29T10:36:45;15.80;56.60
40622;DHT22;26324;52.040;11.528;2022-09-29T10:41:55;15.90;56.40
40622;DHT22;26324;52.040;11.528;2022-09-29T10:44:21;16.00;55.00
40622;DHT22;26324;52.040;11.528;2022-09-29T10:46:51;16.10;54.30
40622;DHT22;26324;52.040;11.528;2022-09-29T10:49:27;16.20;53.90
40622;DHT22;26324;52.040;11.528;2022-09-29T10:52:03;15.90;54.90
40622;DHT22;26324;52.040;11.528;2022-09-29T10:54:35;16.20;55.00
40622;DHT22;26324;52.040;11.528;2022-09-29T10:57:13;16.40;54.60
40622;DHT22;26324;52.040;11.528;2022-09-29T10:59:50;16.60;53.90
40622;DHT22;26324;52.040;11.528;2022-09-29T11:04:51;16.20;53.70
40622;DHT22;26324;52.040;11.528;2022-09-29T11:07:18;16.50;54.00
40622;DHT22;26324;52.040;11.528;2022-09-29T11:09:43;16.70;57.30
40622;DHT22;26324;52.040;11.528;2022-09-29T11:12:26;17.30;54.00
40622;DHT22;26324;52.040;11.528;2022-09-29T11:14:52;17.50;52.50
40622;DHT22;26324;52.040;11.528;2022-09-29T11:17:30;17.40;51.00
40622;DHT22;26324;52.040;11.528;2022-09-29T11:20:00;17.30;47.60
40622;DHT22;26324;52.040;11.528;2022-09-29T11:41:39;17.70;51.60
40622;DHT22;26324;52.040;11.528;2022-09-29T11:44:24;18.30;51.40
40622;DHT22;26324;52.040;11.528;2022-09-29T11:47:05;18.60;49.90
40622;DHT22;26324;52.040;11.528;2022-09-29T11:52:49;19.30;44.90
40622;DHT22;26324;52.040;11.528;2022-09-29T11:55:26;19.10;45.70
40622;DHT22;26324;52.040;11.528;2022-09-29T11:58:17;19.20;48.50
40622;DHT22;26324;52.040;11.528;2022-09-29T12:06:54;19.80;42.90
40622;DHT22;26324;52.040;11.528;2022-09-29T12:12:18;19.30;41.70
40622;DHT22;26324;52.040;11.528;2022-09-29T12:15:01;18.60;42.10
40622;DHT22;26324;52.040;11.528;2022-09-29T12:17:32;18.50;45.80
40622;DHT22;26324;52.040;11.528;2022-09-29T12:20:12;18.40;43.90
40622;DHT22;26324;52.040;11.528;2022-09-29T12:22:39;18.70;43.10
40622;DHT22;26324;52.040;11.528;2022-09-29T12:25:13;18.50;42.60
40622;DHT22;26324;52.040;11.528;2022-09-29T12:27:41;18.00;45.10
40622;DHT22;26324;52.040;11.528;2022-09-29T12:30:25;17.80;45.40
40622;DHT22;26324;52.040;11.528;2022-09-29T12:35:42;17.90;46.70
40622;DHT22;26324;52.040;11.528;2022-09-29T12:38:21;17.80;47.20
40622;DHT22;26324;52.040;11.528;2022-09-29T12:41:16;17.90;49.90
40622;DHT22;26324;52.040;11.528;2022-09-29T12:43:57;18.20;46.50
40622;DHT22;26324;52.040;11.528;2022-09-29T12:51:48;19.60;43.20
40622;DHT22;26324;52.040;11.528;2022-09-29T12:56:53;20.10;42.50
40622;DHT22;26324;52.040;11.528;2022-09-29T13:02:37;20.00;40.10
40622;DHT22;26324;52.040;11.528;2022-09-29T13:24:59;26.00;31.70
40622;DHT22;26324;52.040;11.528;2022-09-29T13:27:35;26.60;29.30
40622;DHT22;26324;52.040;11.528;2022-09-29T13:30:07;27.90;28.40
40622;DHT22;26324;52.040;11.528;2022-09-29T13:32:45;28.80;28.20
40622;DHT22;26324;52.040;11.528;2022-09-29T13:35:15;29.70;25.50
40622;DHT22;26324;52.040;11.528;2022-09-29T13:37:49;30.20;24.20
40622;DHT22;26324;52.040;11.528;2022-09-29T13:40:23;30.80;24.60
40622;DHT22;26324;52.040;11.528;2022-09-29T13:42:50;31.70;23.70
40622;DHT22;26324;52.040;11.528;2022-09-29T13:47:53;31.60;24.10
40622;DHT22;26324;52.040;11.528;2022-09-29T13:58:28;26.70;28.10
40622;DHT22;26324;52.040;11.528;2022-09-29T14:00:56;26.10;29.30
40622;DHT22;26324;52.040;11.528;2022-09-29T14:03:31;27.10;28.40
40622;DHT22;26324;52.040;11.528;2022-09-29T14:06:19;27.60;27.60
40622;DHT22;26324;52.040;11.528;2022-09-29T14:09:11;27.00;27.50
40622;DHT22;26324;52.040;11.528;2022-09-29T14:11:42;27.40;29.00
40622;DHT22;26324;52.040;11.528;2022-09-29T14:17:14;27.80;27.60
40622;DHT22;26324;52.040;11.528;2022-09-29T14:19:53;28.10;26.10
40622;DHT22;26324;52.040;11.528;2022-09-29T14:38:25;24.90;29.00
40622;DHT22;26324;52.040;11.528;2022-09-29T14:41:46;24.30;30.10
40622;DHT22;26324;52.040;11.528;2022-09-29T14:44:01;23.20;31.80
40622;DHT22;26324;52.040;11.528;2022-09-29T14:47:03;21.80;33.30
40622;DHT22;26324;52.040;11.528;2022-09-29T15:01:27;18.10;42.40
40622;DHT22;26324;52.040;11.528;2022-09-29T15:03:56;17.90;42.40
40622;DHT22;26324;52.040;11.528;2022-09-29T15:06:25;17.90;43.20
40622;DHT22;26324;52.040;11.528;2022-09-29T15:11:41;17.60;43.20
40622;DHT22;26324;52.040;11.528;2022-09-29T15:27:42;17.20;45.30
40622;DHT22;26324;52.040;11.528;2022-09-29T15:30:18;17.30;45.10
40622;DHT22;26324;52.040;11.528;2022-09-29T15:32:49;18.40;45.00
40622;DHT22;26324;52.040;11.528;2022-09-29T15:35:20;20.50;41.70
40622;DHT22;26324;52.040;11.528;2022-09-29T15:40:20;24.60;31.70
40622;DHT22;26324;52.040;11.528;2022-09-29T15:42:46;25.30;29.90
40622;DHT22;26324;52.040;11.528;2022-09-29T15:45:26;25.00;31.70
40622;DHT22;26324;52.040;11.528;2022-09-29T15:48:05;23.60;32.80
40622;DHT22;26324;52.040;11.528;2022-09-29T15:50:40;22.10;35.20
40622;DHT22;26324;52.040;11.528;2022-09-29T15:53:07;21.00;37.50
40622;DHT22;26324;52.040;11.528;2022-09-29T15:55:33;20.00;40.50
40622;DHT22;26324;52.040;11.528;2022-09-29T15:57:59;19.30;42.70
40622;DHT22;26324;52.040;11.528;2022-09-29T16:03:02;18.10;44.50
40622;DHT22;26324;52.040;11.528;2022-09-29T16:05:31;17.80;47.60
40622;DHT22;26324;52.040;11.528;2022-09-29T16:08:03;17.50;47.90
40622;DHT22;26324;52.040;11.528;2022-09-29T16:10:35;17.20;47.30
40622;DHT22;26324;52.040;11.528;2022-09-29T16:13:05;17.00;47.80
40622;DHT22;26324;52.040;11.528;2022-09-29T16:15:42;16.70;48.10
40622;DHT22;26324;52.040;11.528;2022-09-29T16:18:14;16.60;50.30
40622;DHT22;26324;52.040;11.528;2022-09-29T16:20:42;16.50;50.30
40622;DHT22;26324;52.040;11.528;2022-09-29T16:26:10;16.20;50.90
40622;DHT22;26324;52.040;11.528;2022-09-29T16:28:39;16.10;54.00
40622;DHT22;26324;52.040;11.528;2022-09-29T16:31:17;16.10;54.00
40622;DHT22;26324;52.040;11.528;2022-09-29T16:33:44;16.00;56.50
40622;DHT22;26324;52.040;11.528;2022-09-29T16:36:17;16.00;56.20
40622;DHT22;26324;52.040;11.528;2022-09-29T16:38:45;15.80;58.90
40622;DHT22;26324;52.040;11.528;2022-09-29T16:41:25;15.60;60.20
40622;DHT22;26324;52.040;11.528;2022-09-29T16:49:35;15.10;61.80
40622;DHT22;26324;52.040;11.528;2022-09-29T16:54:31;14.80;62.30
40622;DHT22;26324;52.040;11.528;2022-09-29T16:57:24;14.80;63.30
40622;DHT22;26324;52.040;11.528;2022-09-29T17:02:22;14.80;62.90
40622;DHT22;26324;52.040;11.528;2022-09-29T17:04:49;14.70;63.10
40622;DHT22;26324;52.040;11.528;2022-09-29T17:07:16;14.60;63.80
40622;DHT22;26324;52.040;11.528;2022-09-29T17:09:47;14.50;64.60
40622;DHT22;26324;52.040;11.528;2022-09-29T17:12:15;14.40;65.60
40622;DHT22;26324;52.040;11.528;2022-09-29T17:14:41;14.20;65.90
40622;DHT22;26324;52.040;11.528;2022-09-29T17:17:29;14.20;65.80
40622;DHT22;26324;52.040;11.528;2022-09-29T17:19:55;14.20;65.80
40622;DHT22;26324;52.040;11.528;2022-09-29T17:22:47;14.20;66.20
40622;DHT22;26324;52.040;11.528;2022-09-29T17:25:14;14.20;66.30
40622;DHT22;26324;52.040;11.528;2022-09-29T17:27:42;14.20;66.50
40622;DHT22;26324;52.040;11.528;2022-09-29T17:30:26;14.10;66.00
40622;DHT22;26324;52.040;11.528;2022-09-29T17:32:54;14.10;66.50
40622;DHT22;26324;52.040;11.528;2022-09-29T17:35:25;14.20;66.30
40622;DHT22;26324;52.040;11.528;2022-09-29T17:37:52;14.30;65.90
40622;DHT22;26324;52.040;11.528;2022-09-29T17:40:23;14.40;65.40
40622;DHT22;26324;52.040;11.528;2022-09-29T17:42:50;14.40;65.50
40622;DHT22;26324;52.040;11.528;2022-09-29T17:45:17;14.40;65.50
40622;DHT22;26324;52.040;11.528;2022-09-29T17:47:44;14.40;65.80
40622;DHT22;26324;52.040;11.528;2022-09-29T17:52:39;14.40;65.10
40622;DHT22;26324;52.040;11.528;2022-09-29T17:55:05;14.50;65.20
40622;DHT22;26324;52.040;11.528;2022-09-29T17:57:36;14.40;64.90
40622;DHT22;26324;52.040;11.528;2022-09-29T18:00:03;14.30;65.10
40622;DHT22;26324;52.040;11.528;2022-09-29T18:02:31;14.30;65.50
40622;DHT22;26324;52.040;11.528;2022-09-29T18:04:56;14.20;65.90
40622;DHT22;26324;52.040;11.528;2022-09-29T18:07:22;14.20;66.40
40622;DHT22;26324;52.040;11.528;2022-09-29T18:09:49;14.30;67.70
40622;DHT22;26324;52.040;11.528;2022-09-29T18:12:15;14.30;68.20
40622;DHT22;26324;52.040;11.528;2022-09-29T18:14:40;14.20;68.70
40622;DHT22;26324;52.040;11.528;2022-09-29T18:17:06;14.20;69.60
40622;DHT22;26324;52.040;11.528;2022-09-29T18:19:33;14.10;69.90
40622;DHT22;26324;52.040;11.528;2022-09-29T18:22:00;14.10;70.00
40622;DHT22;26324;52.040;11.528;2022-09-29T18:24:27;14.10;70.00
40622;DHT22;26324;52.040;11.528;2022-09-29T18:26:53;14.00;70.40
40622;DHT22;26324;52.040;11.528;2022-09-29T18:29:18;14.00;70.60
40622;DHT22;26324;52.040;11.528;2022-09-29T18:31:44;14.00;70.10
40622;DHT22;26324;52.040;11.528;2022-09-29T18:34:18;13.90;69.30
40622;DHT22;26324;52.040;11.528;2022-09-29T18:36:44;14.00;69.00
40622;DHT22;26324;52.040;11.528;2022-09-29T18:39:10;14.00;68.90
40622;DHT22;26324;52.040;11.528;2022-09-29T18:41:36;13.90;69.00
40622;DHT22;26324;52.040;11.528;2022-09-29T18:44:12;13.80;69.40
40622;DHT22;26324;52.040;11.528;2022-09-29T18:46:37;13.80;70.20
40622;DHT22;26324;52.040;11.528;2022-09-29T18:49:03;13.80;70.30
40622;DHT22;26324;52.040;11.528;2022-09-29T18:51:29;13.80;70.20
40622;DHT22;26324;52.040;11.528;2022-09-29T18:53:54;13.80;69.80
40622;DHT22;26324;52.040;11.528;2022-09-29T18:56:20;13.80;69.90
40622;DHT22;26324;52.040;11.528;2022-09-29T18:58:45;13.80;70.00
40622;DHT22;26324;52.040;11.528;2022-09-29T19:01:15;13.70;70.60
40622;DHT22;26324;52.040;11.528;2022-09-29T19:03:41;13.80;70.30
40622;DHT22;26324;52.040;11.528;2022-09-29T19:06:08;13.80;70.50
40622;DHT22;26324;52.040;11.528;2022-09-29T19:08:37;13.70;70.40
40622;DHT22;26324;52.040;11.528;2022-09-29T19:11:03;13.60;70.40